createdAt,value
2018-09-08T00:02:08.577Z,72.89
2018-09-08T00:04:36.299Z,73.34
2018-09-08T00:07:10.139Z,73.19
2018-09-08T00:09:37.890Z,73.09
2018-09-08T00:12:06.091Z,72.29
2018-09-08T00:14:33.367Z,73.08
2018-09-08T00:17:06.939Z,72.78
2018-09-08T00:19:40.456Z,72.98
2018-09-08T00:22:14.008Z,72.79
2018-09-08T00:24:47.283Z,73.28
2018-09-08T00:27:19.254Z,72.50
2018-09-08T00:29:48.280Z,73.17
2018-09-08T00:32:16.736Z,73.72
2018-09-08T00:34:44.538Z,72.92
2018-09-08T00:37:12.467Z,73.43
2018-09-08T00:39:42.035Z,73.08
2018-09-08T00:42:09.916Z,73.83
2018-09-08T00:44:37.585Z,72.87
2018-09-08T00:47:05.338Z,73.03
2018-09-08T00:49:33.282Z,73.72
2018-09-08T00:52:00.975Z,73.32
2018-09-08T00:54:28.776Z,73.67
2018-09-08T00:56:56.534Z,73.75
2018-09-08T00:59:24.304Z,73.26
2018-09-08T01:01:52.074Z,73.71
2018-09-08T01:04:19.855Z,74.29
2018-09-08T01:06:47.614Z,74.16
2018-09-08T01:09:15.338Z,73.94
2018-09-08T01:11:43.411Z,74.21
2018-09-08T01:14:11.168Z,73.79
2018-09-08T01:16:38.851Z,73.19
2018-09-08T01:19:06.652Z,73.70
2018-09-08T01:21:34.498Z,73.52
2018-09-08T01:24:02.479Z,73.15
2018-09-08T01:26:30.191Z,73.65
2018-09-08T01:28:57.914Z,73.80
2018-09-08T01:31:25.674Z,73.95
2018-09-08T01:33:53.361Z,73.86
2018-09-08T01:36:21.369Z,73.97
2018-09-08T01:38:49.066Z,74.14
2018-09-08T01:41:16.894Z,74.04
2018-09-08T01:43:44.600Z,74.39
2018-09-08T01:46:12.347Z,73.82
2018-09-08T01:48:40.083Z,73.89
2018-09-08T01:51:07.886Z,73.63
2018-09-08T01:53:35.617Z,74.12
2018-09-08T01:56:03.311Z,74.04
2018-09-08T01:58:31.080Z,73.58
2018-09-08T02:00:58.810Z,73.49
2018-09-08T02:03:30.180Z,73.67
2018-09-08T02:05:57.879Z,74.50
2018-09-08T02:08:25.603Z,74.58
2018-09-08T02:10:53.296Z,73.87
2018-09-08T02:13:20.979Z,74.55
2018-09-08T02:15:48.701Z,74.24
2018-09-08T02:18:16.439Z,73.72
2018-09-08T02:20:44.156Z,74.03
2018-09-08T02:23:11.866Z,74.16
2018-09-08T02:25:39.548Z,74.90
2018-09-08T02:28:07.430Z,74.49
2018-09-08T02:30:35.232Z,75.13
2018-09-08T02:33:03.232Z,75.09
2018-09-08T02:35:31.220Z,75.00
2018-09-08T02:37:58.927Z,74.71
2018-09-08T02:40:26.652Z,74.71
2018-09-08T02:42:54.407Z,74.93
2018-09-08T02:45:22.067Z,75.09
2018-09-08T02:47:49.908Z,74.76
2018-09-08T02:50:43.377Z,73.65
2018-09-08T02:53:10.950Z,73.50
2018-09-08T02:55:37.698Z,74.47
2018-09-08T02:58:04.027Z,74.17
2018-09-08T03:00:30.804Z,74.68
2018-09-08T03:02:57.194Z,74.40
2018-09-08T03:08:24.288Z,75.01
2018-09-08T03:10:50.691Z,75.45
2018-09-08T03:13:17.022Z,75.21
2018-09-08T03:15:43.479Z,75.45
2018-09-08T03:18:09.913Z,75.55
2018-09-08T03:20:36.329Z,75.80
2018-09-08T03:23:02.664Z,75.48
2018-09-08T03:25:29.012Z,75.38
2018-09-08T03:27:55.343Z,75.04
2018-09-08T03:32:54.859Z,75.39
2018-09-08T03:35:21.281Z,75.68
2018-09-08T03:37:47.626Z,76.08
2018-09-08T03:40:14.042Z,75.99
2018-09-08T03:42:40.375Z,75.70
2018-09-08T03:45:07.042Z,75.07
2018-09-08T03:47:33.506Z,75.23
2018-09-08T03:49:59.833Z,75.68
2018-09-08T03:52:26.279Z,75.50
2018-09-08T03:54:52.670Z,75.81
2018-09-08T03:57:19.007Z,74.64
2018-09-08T03:59:45.461Z,74.95
2018-09-08T04:02:11.918Z,74.90
2018-09-08T04:04:39.636Z,74.27
2018-09-08T04:07:07.452Z,74.64
2018-09-08T04:09:40.818Z,74.65
2018-09-08T04:12:08.867Z,74.74
2018-09-08T04:14:36.531Z,74.96
2018-09-08T04:17:04.220Z,75.29
2018-09-08T04:19:31.919Z,74.73
2018-09-08T04:21:59.762Z,74.51
2018-09-08T04:24:27.442Z,73.99
2018-09-08T04:26:55.147Z,74.35
2018-09-08T04:29:22.857Z,74.09
2018-09-08T04:31:50.616Z,74.25
2018-09-08T04:34:18.662Z,73.52
2018-09-08T04:36:46.431Z,73.44
2018-09-08T04:39:14.244Z,73.18
2018-09-08T04:41:41.983Z,72.11
2018-09-08T04:44:10.022Z,72.47
2018-09-08T04:46:37.798Z,72.99
2018-09-08T04:49:05.514Z,73.02
2018-09-08T04:51:33.272Z,72.71
2018-09-08T04:57:11.336Z,73.46
2018-09-08T04:59:39.046Z,73.28
2018-09-08T05:02:06.766Z,73.49
2018-09-08T05:04:35.479Z,73.83
2018-09-08T05:07:03.211Z,74.08
2018-09-08T05:09:31.068Z,73.65
2018-09-08T05:11:59.017Z,73.76
2018-09-08T05:14:26.756Z,73.76
2018-09-08T05:16:54.427Z,73.80
2018-09-08T05:19:22.107Z,73.75
2018-09-08T05:21:49.860Z,73.38
2018-09-08T05:24:21.381Z,73.33
2018-09-08T05:26:49.084Z,73.52
2018-09-08T05:29:16.771Z,73.83
2018-09-08T05:31:44.492Z,73.15
2018-09-08T05:34:12.187Z,73.22
2018-09-08T05:36:39.885Z,72.86
2018-09-08T05:39:07.856Z,73.11
2018-09-08T05:41:35.903Z,72.89
2018-09-08T05:44:03.779Z,72.51
2018-09-08T05:46:31.439Z,72.14
2018-09-08T05:48:59.440Z,72.19
2018-09-08T05:51:27.071Z,72.48
2018-09-08T05:53:55.058Z,71.93
2018-09-08T05:56:22.823Z,71.29
2018-09-08T05:58:50.514Z,71.76
2018-09-08T06:01:18.331Z,72.11
2018-09-08T06:03:46.203Z,71.72
2018-09-08T06:06:13.926Z,71.81
2018-09-08T06:08:41.752Z,71.95
2018-09-08T06:11:09.532Z,72.00
2018-09-08T06:13:37.355Z,71.27
2018-09-08T06:16:05.230Z,70.44
2018-09-08T06:18:32.926Z,71.16
2018-09-08T06:21:01.078Z,70.91
2018-09-08T06:23:28.730Z,70.88
2018-09-08T06:26:02.151Z,71.30
2018-09-08T06:28:29.861Z,71.03
2018-09-08T06:30:57.871Z,70.92
2018-09-08T06:33:25.703Z,70.91
2018-09-08T06:35:53.378Z,70.43
2018-09-08T06:38:21.089Z,69.83
2018-09-08T06:40:48.843Z,69.59
2018-09-08T06:43:16.826Z,69.47
2018-09-08T06:45:44.699Z,69.81
2018-09-08T06:48:12.492Z,69.21
2018-09-08T06:50:40.194Z,69.11
2018-09-08T06:53:07.996Z,69.52
2018-09-08T06:55:35.746Z,68.94
2018-09-08T06:58:03.460Z,69.04
2018-09-08T07:00:31.099Z,68.98
2018-09-08T07:02:58.923Z,68.92
2018-09-08T07:05:26.632Z,69.47
2018-09-08T07:07:54.347Z,68.63
2018-09-08T07:10:22.177Z,68.47
2018-09-08T07:12:49.992Z,70.00
2018-09-08T07:15:17.728Z,69.16
2018-09-08T07:17:45.390Z,68.27
2018-09-08T07:20:13.275Z,67.23
2018-09-08T07:22:41.068Z,67.81
2018-09-08T07:25:09.083Z,66.50
2018-09-08T07:27:36.738Z,63.37
2018-09-08T07:30:04.779Z,63.84
2018-09-08T07:32:32.553Z,64.91
2018-09-08T07:35:00.415Z,65.07
2018-09-08T07:37:28.336Z,64.58
2018-09-08T07:39:56.031Z,63.17
2018-09-08T07:42:23.739Z,63.91
2018-09-08T07:44:51.919Z,61.13
2018-09-08T07:47:19.581Z,61.23
2018-09-08T07:49:47.375Z,59.57
2018-09-08T07:52:15.119Z,59.95
2018-09-08T07:54:42.907Z,60.82
2018-09-08T07:57:10.627Z,58.72
2018-09-08T07:59:38.460Z,59.20
2018-09-08T08:02:06.300Z,55.22
2018-09-08T08:04:34.095Z,56.62
2018-09-08T08:07:01.755Z,56.12
2018-09-08T08:09:29.782Z,57.28
2018-09-08T08:11:57.543Z,56.55
2018-09-08T08:14:25.445Z,55.50
2018-09-08T08:16:53.494Z,54.81
2018-09-08T08:19:21.303Z,54.15
2018-09-08T08:21:49.369Z,55.41
2018-09-08T08:24:17.167Z,54.65
2018-09-08T08:26:45.063Z,52.84
2018-09-08T08:29:12.846Z,53.53
2018-09-08T08:31:40.566Z,52.66
2018-09-08T08:34:08.625Z,54.17
2018-09-08T08:36:36.511Z,49.13
2018-09-08T08:39:07.191Z,49.25
2018-09-08T08:41:34.938Z,48.28
2018-09-08T08:44:02.666Z,48.48
2018-09-08T08:46:30.450Z,47.24
2018-09-08T08:48:58.220Z,47.21
2018-09-08T08:52:43.010Z,45.93
2018-09-08T08:55:09.327Z,47.91
2018-09-08T08:57:37.115Z,46.12
2018-09-08T09:00:04.920Z,46.36
2018-09-08T09:02:32.748Z,45.00
2018-09-08T09:05:00.703Z,44.35
2018-09-08T09:07:28.404Z,43.72
2018-09-08T09:09:56.428Z,43.82
2018-09-08T09:12:24.507Z,42.42
2018-09-08T09:14:52.267Z,41.00
2018-09-08T09:17:20.086Z,43.20
2018-09-08T09:20:05.325Z,40.95
2018-09-08T09:22:50.514Z,41.21
2018-09-08T09:25:18.379Z,40.28
2018-09-08T09:27:47.306Z,39.62
2018-09-08T09:30:15.801Z,40.21
2018-09-08T09:32:43.542Z,39.04
2018-09-08T09:35:13.023Z,38.27
2018-09-08T09:37:41.223Z,40.88
2018-09-08T09:40:09.581Z,36.27
2018-09-08T09:42:37.387Z,35.44
2018-09-08T09:45:05.727Z,36.93
2018-09-08T09:47:37.406Z,36.15
2018-09-08T09:50:06.755Z,33.31
2018-09-08T09:52:34.490Z,34.79
2018-09-08T09:55:02.220Z,35.17
2018-09-08T09:57:30.026Z,34.77
2018-09-08T09:59:57.814Z,34.75
2018-09-08T10:02:43.355Z,35.59
2018-09-08T10:05:13.234Z,34.93
2018-09-08T10:07:40.950Z,34.37
2018-09-08T10:10:17.790Z,34.77
2018-09-08T10:12:45.602Z,33.78
2018-09-08T10:15:13.307Z,34.09
2018-09-08T10:17:42.103Z,31.95
2018-09-08T10:20:17.248Z,34.12
2018-09-08T10:22:44.987Z,34.57
2018-09-08T10:25:15.007Z,33.30
2018-09-08T10:27:43.464Z,30.87
2018-09-08T10:30:11.975Z,33.56
2018-09-08T10:32:40.568Z,33.72
2018-09-08T10:35:08.339Z,33.73
2018-09-08T10:37:36.227Z,33.51
2018-09-08T10:40:04.023Z,32.61
2018-09-08T10:42:32.037Z,32.86
2018-09-08T10:44:59.839Z,31.60
2018-09-08T10:47:27.507Z,33.26
2018-09-08T10:49:55.298Z,50.28
2018-09-08T10:52:32.878Z,39.35
2018-09-08T10:55:00.768Z,40.22
2018-09-08T10:57:28.492Z,41.67
2018-09-08T10:59:56.395Z,41.53
2018-09-08T11:02:24.450Z,38.31
2018-09-08T11:04:52.009Z,38.43
2018-09-08T11:07:19.699Z,38.99
2018-09-08T11:09:47.490Z,37.00
2018-09-08T11:12:18.477Z,36.66
2018-09-08T11:14:46.274Z,36.39
2018-09-08T11:17:14.123Z,36.86
2018-09-08T11:19:41.811Z,35.12
2018-09-08T11:22:09.576Z,35.17
2018-09-08T11:24:37.366Z,34.99
2018-09-08T11:27:05.361Z,33.18
2018-09-08T11:29:33.087Z,33.91
2018-09-08T11:32:00.731Z,34.02
2018-09-08T11:34:28.542Z,34.60
2018-09-08T11:36:56.251Z,34.74
2018-09-08T11:39:23.927Z,33.04
2018-09-08T11:41:51.687Z,33.30
2018-09-08T11:44:19.603Z,31.71
2018-09-08T11:46:47.426Z,30.71
2018-09-08T11:49:15.086Z,31.51
2018-09-08T11:51:42.748Z,31.86
2018-09-08T11:54:10.418Z,31.15
2018-09-08T11:56:38.170Z,31.85
2018-09-08T11:59:06.122Z,30.79
2018-09-08T12:01:33.831Z,31.25
2018-09-08T12:04:01.930Z,32.10
2018-09-08T12:06:29.794Z,30.47
2018-09-08T12:08:57.583Z,28.76
2018-09-08T12:11:25.330Z,30.13
2018-09-08T12:13:53.514Z,30.23
2018-09-08T12:16:21.203Z,31.36
2018-09-08T12:18:49.032Z,31.33
2018-09-08T12:21:19.154Z,31.80
2018-09-08T12:23:46.882Z,30.10
2018-09-08T12:26:14.954Z,30.13
2018-09-08T12:28:42.718Z,30.41
2018-09-08T12:31:10.415Z,31.45
2018-09-08T12:33:38.135Z,31.78
2018-09-08T12:36:06.022Z,30.94
2018-09-08T12:38:33.778Z,29.33
2018-09-08T12:41:01.628Z,31.90
2018-09-08T12:43:29.422Z,29.70
2018-09-08T12:46:03.639Z,30.12
2018-09-08T12:48:31.322Z,30.68
2018-09-08T12:50:59.022Z,30.62
2018-09-08T12:53:26.820Z,29.76
2018-09-08T12:55:54.431Z,30.52
2018-09-08T12:58:22.155Z,30.85
2018-09-08T13:00:49.878Z,30.72
2018-09-08T13:03:17.566Z,30.24
2018-09-08T13:05:45.324Z,32.40
2018-09-08T13:08:13.116Z,29.66
2018-09-08T13:10:40.854Z,30.45
2018-09-08T13:13:08.532Z,31.12
2018-09-08T13:15:36.335Z,32.11
2018-09-08T13:18:04.070Z,31.37
2018-09-08T13:20:31.782Z,30.62
2018-09-08T13:22:59.516Z,31.98
2018-09-08T13:25:27.313Z,31.72
2018-09-08T13:27:55.019Z,32.17
2018-09-08T13:30:22.863Z,31.82
2018-09-08T13:32:50.530Z,28.52
2018-09-08T13:35:18.563Z,30.57
2018-09-08T13:37:46.311Z,31.97
2018-09-08T13:40:14.938Z,32.51
2018-09-08T13:42:42.911Z,33.34
2018-09-08T13:45:10.595Z,31.86
2018-09-08T13:47:38.290Z,31.31
2018-09-08T13:50:06.152Z,32.45
2018-09-08T13:52:33.829Z,32.92
2018-09-08T13:55:01.946Z,32.04
2018-09-08T13:57:29.727Z,32.51
2018-09-08T13:59:57.666Z,30.96
2018-09-08T14:02:25.516Z,30.66
2018-09-08T14:04:53.316Z,32.63
2018-09-08T14:07:21.275Z,32.01
2018-09-08T14:09:49.035Z,32.99
2018-09-08T14:12:17.635Z,33.47
2018-09-08T14:14:45.411Z,34.05
2018-09-08T14:17:13.093Z,33.88
2018-09-08T14:19:40.946Z,33.94
2018-09-08T14:22:08.707Z,34.29
2018-09-08T14:24:36.507Z,35.38
2018-09-08T14:27:04.553Z,34.50
2018-09-08T14:29:32.304Z,33.87
2018-09-08T14:32:00.239Z,34.43
2018-09-08T14:34:27.934Z,34.56
2018-09-08T14:36:55.615Z,33.57
2018-09-08T14:39:23.521Z,34.61
2018-09-08T14:41:54.999Z,34.87
2018-09-08T14:44:22.682Z,33.94
2018-09-08T14:46:50.443Z,34.06
2018-09-08T14:49:18.111Z,32.80
2018-09-08T14:51:45.812Z,34.98
2018-09-08T14:54:13.747Z,34.95
2018-09-08T14:56:41.658Z,34.18
2018-09-08T14:59:09.372Z,34.09
2018-09-08T15:01:37.330Z,35.48
2018-09-08T15:04:05.112Z,36.55
2018-09-08T15:06:32.850Z,36.47
2018-09-08T15:09:00.771Z,35.25
2018-09-08T15:11:28.575Z,37.27
2018-09-08T15:13:56.275Z,35.75
2018-09-08T15:16:24.003Z,36.00
2018-09-08T15:18:51.762Z,36.48
2018-09-08T15:21:19.423Z,37.34
2018-09-08T15:23:47.175Z,36.02
2018-09-08T15:26:15.121Z,36.82
2018-09-08T15:28:42.995Z,36.05
2018-09-08T15:31:10.685Z,36.29
2018-09-08T15:33:38.462Z,35.80
2018-09-08T15:36:06.249Z,35.77
2018-09-08T15:38:33.931Z,36.94
2018-09-08T15:41:01.683Z,35.17
2018-09-08T15:43:33.015Z,36.68
2018-09-08T15:46:00.829Z,36.89
2018-09-08T15:48:28.503Z,38.08
2018-09-08T15:50:56.199Z,38.02
2018-09-08T15:53:23.989Z,38.04
2018-09-08T15:55:51.739Z,37.87
2018-09-08T15:58:19.692Z,37.35
2018-09-08T16:00:47.424Z,39.01
2018-09-08T16:03:15.630Z,39.13
2018-09-08T16:05:43.419Z,37.49
2018-09-08T16:08:11.183Z,37.92
2018-09-08T16:10:38.977Z,37.80
2018-09-08T16:13:07.606Z,39.10
2018-09-08T16:15:35.815Z,39.33
2018-09-08T16:18:03.550Z,38.97
2018-09-08T16:20:31.267Z,38.51
2018-09-08T16:22:59.006Z,38.76
2018-09-08T16:25:26.834Z,39.51
2018-09-08T16:27:54.555Z,39.27
2018-09-08T16:30:22.279Z,37.53
2018-09-08T16:32:50.317Z,38.65
2018-09-08T16:35:18.039Z,38.24
2018-09-08T16:37:45.814Z,39.67
2018-09-08T16:40:13.515Z,38.88
2018-09-08T16:42:41.326Z,38.69
2018-09-08T16:45:09.150Z,40.44
2018-09-08T16:47:36.913Z,40.82
2018-09-08T16:50:04.792Z,38.59
2018-09-08T16:52:32.468Z,39.14
2018-09-08T16:55:00.203Z,39.81
2018-09-08T16:57:28.176Z,40.82
2018-09-08T16:59:55.862Z,40.89
2018-09-08T17:02:23.835Z,39.66
2018-09-08T17:04:51.640Z,40.34
2018-09-08T17:07:19.283Z,40.73
2018-09-08T17:09:46.980Z,40.29
2018-09-08T17:12:14.691Z,40.10
2018-09-08T17:14:42.498Z,39.95
2018-09-08T17:17:10.179Z,40.77
2018-09-08T17:19:37.890Z,40.61
2018-09-08T17:22:05.611Z,41.16
2018-09-08T17:24:33.367Z,41.64
2018-09-08T17:27:01.104Z,41.37
2018-09-08T17:29:28.856Z,41.61
2018-09-08T17:31:56.604Z,41.97
2018-09-08T17:34:24.280Z,41.52
2018-09-08T17:36:52.015Z,41.67
2018-09-08T17:39:20.014Z,42.02
2018-09-08T17:41:47.719Z,42.66
2018-09-08T17:44:15.482Z,42.92
2018-09-08T17:46:43.507Z,42.80
2018-09-08T17:49:11.267Z,42.04
2018-09-08T17:51:38.999Z,42.83
2018-09-08T17:54:06.710Z,43.30
2018-09-08T17:56:34.411Z,44.45
2018-09-08T17:59:02.365Z,44.82
2018-09-08T18:01:30.012Z,45.69
2018-09-08T18:03:57.911Z,45.76
2018-09-08T18:06:26.004Z,46.76
2018-09-08T18:08:53.784Z,47.13
2018-09-08T18:11:21.469Z,47.94
2018-09-08T18:13:49.167Z,47.45
2018-09-08T18:16:17.778Z,47.65
2018-09-08T18:18:45.483Z,48.78
2018-09-08T18:21:13.135Z,48.96
2018-09-08T18:23:41.259Z,49.93
2018-09-08T18:26:15.329Z,50.19
2018-09-08T18:28:43.082Z,51.14
2018-09-08T18:31:10.871Z,51.43
2018-09-08T18:33:38.627Z,51.67
2018-09-08T18:36:06.774Z,51.44
2018-09-08T18:38:34.590Z,51.73
2018-09-08T18:41:02.302Z,51.64
2018-09-08T18:43:30.046Z,52.74
2018-09-08T18:45:58.927Z,52.48
2018-09-08T18:48:26.998Z,52.88
2018-09-08T18:50:54.792Z,51.96
2018-09-08T18:53:22.474Z,51.39
2018-09-08T18:55:50.411Z,51.77
2018-09-08T18:58:18.872Z,52.28
2018-09-08T19:00:46.539Z,51.85
2018-09-08T19:03:14.314Z,52.86
2018-09-08T19:05:42.307Z,53.75
2018-09-08T19:08:10.015Z,53.29
2018-09-08T19:10:37.862Z,53.70
2018-09-08T19:13:05.626Z,53.78
2018-09-08T19:15:33.520Z,54.42
2018-09-08T19:18:01.295Z,54.20
2018-09-08T19:20:34.863Z,53.71
2018-09-08T19:23:02.925Z,54.16
2018-09-08T19:25:30.627Z,54.39
2018-09-08T19:28:01.672Z,54.11
2018-09-08T19:30:31.386Z,53.99
2018-09-08T19:32:59.341Z,54.19
2018-09-08T19:35:32.859Z,54.68
2018-09-08T19:38:00.653Z,54.60
2018-09-08T19:40:41.215Z,54.08
2018-09-08T19:43:09.066Z,54.13
2018-09-08T19:45:36.836Z,55.01
2018-09-08T19:48:21.117Z,55.06
2018-09-08T19:50:48.863Z,54.92
2018-09-08T19:53:22.369Z,55.21
2018-09-08T19:55:50.286Z,54.97
2018-09-08T19:58:23.900Z,55.13
2018-09-08T20:00:51.600Z,55.41
2018-09-08T20:03:19.470Z,55.71
2018-09-08T20:05:47.210Z,56.00
2018-09-08T20:08:15.012Z,56.26
2018-09-08T20:10:42.838Z,55.73
2018-09-08T20:13:10.524Z,56.31
2018-09-08T20:15:38.248Z,56.03
2018-09-08T20:18:06.027Z,56.00
2018-09-08T20:20:33.715Z,56.02
2018-09-08T20:23:01.900Z,56.78
2018-09-08T20:25:29.923Z,56.46
2018-09-08T20:27:57.711Z,57.02
2018-09-08T20:30:25.466Z,57.13
2018-09-08T20:32:53.170Z,56.96
2018-09-08T20:35:20.997Z,56.95
2018-09-08T20:37:48.765Z,58.04
2018-09-08T20:40:16.578Z,57.71
2018-09-08T20:42:44.274Z,57.37
2018-09-08T20:45:11.975Z,57.87
2018-09-08T20:47:39.764Z,57.96
2018-09-08T20:50:07.712Z,57.73
2018-09-08T20:52:35.452Z,58.50
2018-09-08T20:55:03.351Z,58.30
2018-09-08T20:57:34.035Z,58.39
2018-09-08T21:00:02.198Z,59.05
2018-09-08T21:02:29.911Z,58.53
2018-09-08T21:04:57.619Z,58.57
2018-09-08T21:07:25.394Z,58.74
2018-09-08T21:09:53.146Z,58.43
2018-09-08T21:12:20.807Z,58.65
2018-09-08T21:14:48.535Z,59.68
2018-09-08T21:17:16.213Z,60.34
2018-09-08T21:19:43.930Z,59.97
2018-09-08T21:22:11.637Z,60.15
2018-09-08T21:24:39.487Z,59.62
2018-09-08T21:27:07.192Z,59.92
2018-09-08T21:29:34.965Z,60.44
2018-09-08T21:32:02.646Z,60.27
2018-09-08T21:34:30.452Z,60.51
2018-09-08T21:36:58.153Z,60.13
2018-09-08T21:39:25.880Z,60.43
2018-09-08T21:41:53.926Z,61.17
2018-09-08T21:44:21.655Z,61.58
2018-09-08T21:46:49.380Z,61.28
2018-09-08T21:49:17.095Z,61.10
2018-09-08T21:51:44.832Z,61.82
2018-09-08T21:54:12.495Z,61.53
2018-09-08T21:56:40.199Z,61.04
2018-09-08T21:59:07.899Z,61.05
2018-09-08T22:01:35.587Z,61.33
2018-09-08T22:04:03.583Z,61.53
2018-09-08T22:06:31.229Z,61.47
2018-09-08T22:08:58.979Z,61.16
2018-09-08T22:11:26.702Z,60.85
2018-09-08T22:13:54.572Z,61.81
2018-09-08T22:16:22.390Z,62.03
2018-09-08T22:18:50.111Z,61.90
2018-09-08T22:21:17.811Z,62.41
2018-09-08T22:23:45.500Z,61.91
2018-09-08T22:26:13.182Z,62.53
2018-09-08T22:28:40.912Z,62.43
2018-09-08T22:31:08.595Z,62.29
2018-09-08T22:33:36.691Z,63.04
2018-09-08T22:36:04.379Z,63.24
2018-09-08T22:38:32.178Z,62.85
2018-09-08T22:40:59.867Z,63.58
2018-09-08T22:43:27.540Z,63.64
2018-09-08T22:45:55.255Z,63.26
2018-09-08T22:48:23.227Z,63.41
2018-09-08T22:50:50.898Z,64.10
2018-09-08T22:53:18.594Z,63.74
2018-09-08T22:55:46.326Z,63.78
2018-09-08T22:58:14.071Z,63.44
2018-09-08T23:00:41.803Z,63.80
2018-09-08T23:03:09.523Z,63.37
2018-09-08T23:05:37.198Z,64.23
2018-09-08T23:08:04.988Z,63.74
2018-09-08T23:10:32.684Z,63.56
2018-09-08T23:13:00.347Z,64.09
2018-09-08T23:15:28.347Z,64.07
2018-09-08T23:17:56.102Z,63.85
2018-09-08T23:20:23.962Z,63.99
2018-09-08T23:22:58.507Z,63.64
2018-09-08T23:25:26.327Z,63.97
2018-09-08T23:27:54.051Z,64.70
2018-09-08T23:30:22.111Z,63.82
2018-09-08T23:32:49.806Z,65.13
2018-09-08T23:35:17.711Z,64.91
2018-09-08T23:37:45.402Z,65.52
2018-09-08T23:40:13.204Z,65.31
2018-09-08T23:42:40.933Z,65.76
2018-09-08T23:45:08.666Z,65.20
2018-09-08T23:47:36.795Z,65.41
2018-09-08T23:50:04.538Z,66.11
2018-09-08T23:52:32.243Z,66.49
2018-09-08T23:54:59.962Z,66.14
2018-09-08T23:57:27.986Z,65.66
2018-09-08T23:59:55.706Z,66.00
